Kristin D — C6XA6 — position and weather

sailwx.info

Track history (hours):
 
Tides and Currents Weather Stations Pressure Air Temp Water Temp Dewpoint Dewpoint Depression Visibility Wind Speed Wind Dir Waves Ship Positions

Kristin D

Last reported at 2016-Feb-11 17:19 UTC. Time now 2016-Feb-12 12:04 UTC.
Position N 66°16' E 012°09'.

Length 90 m; draft 4.4 m.

Type: Cargo ship. MMSI: 311003700.

Date/timePositionNaut miles runAvg speedWind from/ knotsBaromVisibWave heightAir tempDewpointWater temp
2016-Feb-11 17:19N 66°16' E 012°09'911.2
2016-Feb-11 16:32N 66°15' E 012°31'6 0.1
2016-Feb-09 14:33N 66°12' E 012°45'1111.2
2016-Feb-09 13:33N 66°16' E 012°20'  
2016-Feb-06 05:31N 59°10' E 004°48'1010.7
2016-Feb-06 04:33N 59°02' E 004°59'1211.6
2016-Feb-06 03:33N 58°52' E 005°11'1212.1
2016-Feb-06 02:33N 58°42' E 005°24'1212.1
2016-Feb-06 01:33N 58°32' E 005°37'1111.4
2016-Feb-06 00:33N 58°24' E 005°52'1111.1
2016-Feb-05 23:33N 58°17' E 006°08'1211.9
2016-Feb-05 22:32N 58°08' E 006°25'1212.0
2016-Feb-05 21:33N 58°01' E 006°43'1212.1
2016-Feb-05 20:33N 57°57' E 007°04'11612.2
2016-Feb-05 11:04N 57°48' E 010°41'610.3
2016-Feb-05 10:29N 57°42' E 010°46'1212.8
2016-Feb-05 09:33N 57°30' E 010°44'12611.3
2016-Feb-04 22:25N 55°25' E 011°00'910.6
2016-Feb-04 21:33N 55°16' E 011°05'1010.1
2016-Feb-04 20:33N 55°06' E 011°03'1110.9
2016-Feb-04 19:33N 54°56' E 010°56'1110.6
2016-Feb-04 18:33N 54°45' E 010°53'1110.8
2016-Feb-04 17:33N 54°36' E 010°43'1712.0
2016-Feb-04 16:08N 54°29' E 010°16'711.4
2016-Feb-04 15:33N 54°23' E 010°11'2 2.0
2016-Feb-04 14:33N 54°22' E 010°08'1 0.7
2016-Feb-04 13:29N 54°22' E 010°07'0 0.0
2016-Feb-04 12:32N 54°22' E 010°07'0 0.0
2016-Feb-04 11:32N 54°22' E 010°07'0 0.0
2016-Feb-04 10:32N 54°22' E 010°07'0 0.0
2016-Feb-04 09:32N 54°22' E 010°07'0 0.0
2016-Feb-04 08:32N 54°22' E 010°07'0 0.0
2016-Feb-04 07:29N 54°22' E 010°07'0 0.0
2016-Feb-04 06:26N 54°22' E 010°07'0 0.0
2016-Feb-04 05:29N 54°22' E 010°07'0 0.0
2016-Feb-04 04:32N 54°22' E 010°07'0 0.0
2016-Feb-04 03:32N 54°22' E 010°07'0 0.0
2016-Feb-04 02:32N 54°22' E 010°07'0 0.0
2016-Feb-04 01:32N 54°22' E 010°07'0 0.0
2016-Feb-04 00:32N 54°22' E 010°07'0 0.0
2016-Feb-03 23:32N 54°22' E 010°07'0 0.0
2016-Feb-03 22:32N 54°22' E 010°07'0 0.0
2016-Feb-03 21:32N 54°22' E 010°07'0 0.0
2016-Feb-03 20:32N 54°22' E 010°07'0 0.0
2016-Feb-03 19:32N 54°22' E 010°07'0 0.0
2016-Feb-03 18:32N 54°22' E 010°07'0 0.0
2016-Feb-03 17:33N 54°22' E 010°07'2 1.9
2016-Feb-03 16:33N 54°22' E 010°10'1110.3
2016-Feb-03 15:32N 54°31' E 010°21'1211.5
2016-Feb-03 14:31N 54°35' E 010°40'1010.8
2016-Feb-03 13:33N 54°36' E 010°58'9 9.0
2016-Feb-03 12:33N 54°35' E 011°13'9 9.3
2016-Feb-03 11:33N 54°31' E 011°28'1010.0
2016-Feb-03 10:33N 54°28' E 011°44'1010.3
2016-Feb-03 09:33N 54°27' E 012°02'9 8.8
2016-Feb-03 08:33N 54°32' E 012°14'10 9.9
2016-Feb-03 07:33N 54°36' E 012°29'59 6.3
2016-Feb-02 22:14N 54°14' E 014°04'812.1
2016-Feb-02 21:33N 54°07' E 014°09'1211.7
2016-Feb-02 20:33N 53°56' E 014°17'9 8.6
2016-Feb-02 19:33N 53°48' E 014°22'1212.1
2016-Feb-02 18:33N 53°38' E 014°34'10 9.9
2016-Feb-02 17:33N 53°28' E 014°36'4 4.0
2016-Feb-02 16:33N 53°24' E 014°36'0 0.0
2016-Feb-02 15:30N 53°24' E 014°36'0 0.0
2016-Feb-02 14:33N 53°24' E 014°36'0 0.0
2016-Feb-02 13:30N 53°24' E 014°36'0 0.0
2016-Feb-02 12:33N 53°24' E 014°36'0 0.0
2016-Feb-02 11:33N 53°24' E 014°36'0 0.2
2016-Feb-02 09:32N 53°25' E 014°36'0 0.0
2016-Feb-02 08:32N 53°25' E 014°36'0 0.0
2016-Feb-02 07:32N 53°25' E 014°36'0 0.0
2016-Feb-02 06:32N 53°25' E 014°36'0 0.0
2016-Feb-02 05:32N 53°25' E 014°36'0 0.0
2016-Feb-02 04:32N 53°25' E 014°36'0 0.0
2016-Feb-02 03:32N 53°25' E 014°36'0 0.0
2016-Feb-02 02:32N 53°25' E 014°36'0 0.0
2016-Feb-02 01:32N 53°25' E 014°36'0 0.0
2016-Feb-02 00:32N 53°25' E 014°36'0 0.0
2016-Feb-01 23:32N 53°25' E 014°36'0 0.0
2016-Feb-01 22:32N 53°25' E 014°36'0 0.0
2016-Feb-01 21:32N 53°25' E 014°36'0 0.0
2016-Feb-01 20:29N 53°25' E 014°36'0 0.0
2016-Feb-01 19:32N 53°25' E 014°36'0 0.0
2016-Feb-01 18:32N 53°25' E 014°36'0 0.0
2016-Feb-01 17:32N 53°25' E 014°36'  
Track history (hours):
 
Tides and Currents Weather Stations Pressure Air Temp Water Temp Dewpoint Dewpoint Depression Visibility Wind Speed Wind Dir Waves Ship Positions

Kristin D

Last reported at 2016-Feb-11 17:19 UTC. Time now 2016-Feb-12 12:04 UTC.
Position N 66°16' E 012°09'.

Length 90 m; draft 4.4 m.

Type: Cargo ship. MMSI: 311003700.

Date/timePositionNaut miles runAvg speedWind from/ knotsBaromVisibWave heightAir tempDewpointWater temp
2016-Feb-11 17:19N 66°16' E 012°09'911.2
2016-Feb-11 16:32N 66°15' E 012°31'6 0.1
2016-Feb-09 14:33N 66°12' E 012°45'1111.2
2016-Feb-09 13:33N 66°16' E 012°20'  
2016-Feb-06 05:31N 59°10' E 004°48'1010.7
2016-Feb-06 04:33N 59°02' E 004°59'1211.6
2016-Feb-06 03:33N 58°52' E 005°11'1212.1
2016-Feb-06 02:33N 58°42' E 005°24'1212.1
2016-Feb-06 01:33N 58°32' E 005°37'1111.4
2016-Feb-06 00:33N 58°24' E 005°52'1111.1
2016-Feb-05 23:33N 58°17' E 006°08'1211.9
2016-Feb-05 22:32N 58°08' E 006°25'1212.0
2016-Feb-05 21:33N 58°01' E 006°43'1212.1
2016-Feb-05 20:33N 57°57' E 007°04'11612.2
2016-Feb-05 11:04N 57°48' E 010°41'610.3
2016-Feb-05 10:29N 57°42' E 010°46'1212.8
2016-Feb-05 09:33N 57°30' E 010°44'12611.3
2016-Feb-04 22:25N 55°25' E 011°00'910.6
2016-Feb-04 21:33N 55°16' E 011°05'1010.1
2016-Feb-04 20:33N 55°06' E 011°03'1110.9
2016-Feb-04 19:33N 54°56' E 010°56'1110.6
2016-Feb-04 18:33N 54°45' E 010°53'1110.8
2016-Feb-04 17:33N 54°36' E 010°43'1712.0
2016-Feb-04 16:08N 54°29' E 010°16'711.4
2016-Feb-04 15:33N 54°23' E 010°11'2 2.0
2016-Feb-04 14:33N 54°22' E 010°08'1 0.7
2016-Feb-04 13:29N 54°22' E 010°07'0 0.0
2016-Feb-04 12:32N 54°22' E 010°07'0 0.0
2016-Feb-04 11:32N 54°22' E 010°07'0 0.0
2016-Feb-04 10:32N 54°22' E 010°07'0 0.0
2016-Feb-04 09:32N 54°22' E 010°07'0 0.0
2016-Feb-04 08:32N 54°22' E 010°07'0 0.0
2016-Feb-04 07:29N 54°22' E 010°07'0 0.0
2016-Feb-04 06:26N 54°22' E 010°07'0 0.0
2016-Feb-04 05:29N 54°22' E 010°07'0 0.0
2016-Feb-04 04:32N 54°22' E 010°07'0 0.0
2016-Feb-04 03:32N 54°22' E 010°07'0 0.0
2016-Feb-04 02:32N 54°22' E 010°07'0 0.0
2016-Feb-04 01:32N 54°22' E 010°07'0 0.0
2016-Feb-04 00:32N 54°22' E 010°07'0 0.0
2016-Feb-03 23:32N 54°22' E 010°07'0 0.0
2016-Feb-03 22:32N 54°22' E 010°07'0 0.0
2016-Feb-03 21:32N 54°22' E 010°07'0 0.0
2016-Feb-03 20:32N 54°22' E 010°07'0 0.0
2016-Feb-03 19:32N 54°22' E 010°07'0 0.0
2016-Feb-03 18:32N 54°22' E 010°07'0 0.0
2016-Feb-03 17:33N 54°22' E 010°07'2 1.9
2016-Feb-03 16:33N 54°22' E 010°10'1110.3
2016-Feb-03 15:32N 54°31' E 010°21'1211.5
2016-Feb-03 14:31N 54°35' E 010°40'1010.8
2016-Feb-03 13:33N 54°36' E 010°58'9 9.0
2016-Feb-03 12:33N 54°35' E 011°13'9 9.3
2016-Feb-03 11:33N 54°31' E 011°28'1010.0
2016-Feb-03 10:33N 54°28' E 011°44'1010.3
2016-Feb-03 09:33N 54°27' E 012°02'9 8.8
2016-Feb-03 08:33N 54°32' E 012°14'10 9.9
2016-Feb-03 07:33N 54°36' E 012°29'59 6.3
2016-Feb-02 22:14N 54°14' E 014°04'812.1
2016-Feb-02 21:33N 54°07' E 014°09'1211.7
2016-Feb-02 20:33N 53°56' E 014°17'9 8.6
2016-Feb-02 19:33N 53°48' E 014°22'1212.1
2016-Feb-02 18:33N 53°38' E 014°34'10 9.9
2016-Feb-02 17:33N 53°28' E 014°36'4 4.0
2016-Feb-02 16:33N 53°24' E 014°36'0 0.0
2016-Feb-02 15:30N 53°24' E 014°36'0 0.0
2016-Feb-02 14:33N 53°24' E 014°36'0 0.0
2016-Feb-02 13:30N 53°24' E 014°36'0 0.0
2016-Feb-02 12:33N 53°24' E 014°36'0 0.0
2016-Feb-02 11:33N 53°24' E 014°36'0 0.2
2016-Feb-02 09:32N 53°25' E 014°36'0 0.0
2016-Feb-02 08:32N 53°25' E 014°36'0 0.0
2016-Feb-02 07:32N 53°25' E 014°36'0 0.0
2016-Feb-02 06:32N 53°25' E 014°36'0 0.0
2016-Feb-02 05:32N 53°25' E 014°36'0 0.0
2016-Feb-02 04:32N 53°25' E 014°36'0 0.0
2016-Feb-02 03:32N 53°25' E 014°36'0 0.0
2016-Feb-02 02:32N 53°25' E 014°36'0 0.0
2016-Feb-02 01:32N 53°25' E 014°36'0 0.0
2016-Feb-02 00:32N 53°25' E 014°36'0 0.0
2016-Feb-01 23:32N 53°25' E 014°36'0 0.0
2016-Feb-01 22:32N 53°25' E 014°36'0 0.0
2016-Feb-01 21:32N 53°25' E 014°36'0 0.0
2016-Feb-01 20:29N 53°25' E 014°36'0 0.0
2016-Feb-01 19:32N 53°25' E 014°36'0 0.0
2016-Feb-01 18:32N 53°25' E 014°36'0 0.0
2016-Feb-01 17:32N 53°25' E 014°36'  

Dump ship's entire track history